sensor_id;sensor_type;location;lat;lon;timestamp;temperature;humidity
27439;DHT22;14887;51.252;7.470;2023-10-13T00:01:57;15.10;99.90
27439;DHT22;14887;51.252;7.470;2023-10-13T00:04:34;15.10;99.90
27439;DHT22;14887;51.252;7.470;2023-10-13T00:07:03;15.10;99.90
27439;DHT22;14887;51.252;7.470;2023-10-13T00:09:30;15.10;99.90
27439;DHT22;14887;51.252;7.470;2023-10-13T00:12:03;15.10;99.90
27439;DHT22;14887;51.252;7.470;2023-10-13T00:14:30;15.00;99.90
27439;DHT22;14887;51.252;7.470;2023-10-13T00:17:08;15.00;99.90
27439;DHT22;14887;51.252;7.470;2023-10-13T00:19:37;15.00;99.90
27439;DHT22;14887;51.252;7.470;2023-10-13T00:22:08;15.00;99.90
27439;DHT22;14887;51.252;7.470;2023-10-13T00:24:39;15.00;99.90
27439;DHT22;14887;51.252;7.470;2023-10-13T00:27:09;15.00;99.90
27439;DHT22;14887;51.252;7.470;2023-10-13T00:29:50;15.00;99.90
27439;DHT22;14887;51.252;7.470;2023-10-13T00:32:16;15.00;99.90
27439;DHT22;14887;51.252;7.470;2023-10-13T00:34:45;15.10;99.90
27439;DHT22;14887;51.252;7.470;2023-10-13T00:37:11;15.00;99.90
27439;DHT22;14887;51.252;7.470;2023-10-13T00:39:52;15.00;99.90
27439;DHT22;14887;51.252;7.470;2023-10-13T00:42:22;15.00;99.90
27439;DHT22;14887;51.252;7.470;2023-10-13T00:44:59;15.00;99.90
27439;DHT22;14887;51.252;7.470;2023-10-13T00:47:26;15.00;99.90
27439;DHT22;14887;51.252;7.470;2023-10-13T00:50:01;15.00;99.90
27439;DHT22;14887;51.252;7.470;2023-10-13T00:52:26;15.00;99.90
27439;DHT22;14887;51.252;7.470;2023-10-13T00:54:55;15.00;99.90
27439;DHT22;14887;51.252;7.470;2023-10-13T00:57:20;15.00;99.90
27439;DHT22;14887;51.252;7.470;2023-10-13T00:59:53;14.90;99.90
27439;DHT22;14887;51.252;7.470;2023-10-13T01:02:20;14.90;99.90
27439;DHT22;14887;51.252;7.470;2023-10-13T01:05:02;14.90;99.90
27439;DHT22;14887;51.252;7.470;2023-10-13T01:07:28;14.90;99.90
27439;DHT22;14887;51.252;7.470;2023-10-13T01:09:54;14.90;99.90
27439;DHT22;14887;51.252;7.470;2023-10-13T01:12:20;14.90;99.90
27439;DHT22;14887;51.252;7.470;2023-10-13T01:14:49;14.90;99.90
27439;DHT22;14887;51.252;7.470;2023-10-13T01:17:15;14.90;99.90
27439;DHT22;14887;51.252;7.470;2023-10-13T01:19:40;14.90;99.90
27439;DHT22;14887;51.252;7.470;2023-10-13T01:22:11;14.90;99.90
27439;DHT22;14887;51.252;7.470;2023-10-13T01:24:37;15.00;99.90
27439;DHT22;14887;51.252;7.470;2023-10-13T01:27:07;15.00;99.90
27439;DHT22;14887;51.252;7.470;2023-10-13T01:29:51;15.00;99.90
27439;DHT22;14887;51.252;7.470;2023-10-13T01:32:24;15.00;99.90
27439;DHT22;14887;51.252;7.470;2023-10-13T01:34:50;15.00;99.90
27439;DHT22;14887;51.252;7.470;2023-10-13T01:37:21;15.00;99.90
27439;DHT22;14887;51.252;7.470;2023-10-13T01:39:47;15.00;99.90
27439;DHT22;14887;51.252;7.470;2023-10-13T01:42:15;15.00;99.90
27439;DHT22;14887;51.252;7.470;2023-10-13T01:44:47;15.00;99.90
27439;DHT22;14887;51.252;7.470;2023-10-13T01:47:13;15.00;99.90
27439;DHT22;14887;51.252;7.470;2023-10-13T01:49:39;15.00;99.90
27439;DHT22;14887;51.252;7.470;2023-10-13T01:52:11;15.10;99.90
27439;DHT22;14887;51.252;7.470;2023-10-13T01:54:41;15.10;99.90
27439;DHT22;14887;51.252;7.470;2023-10-13T01:57:09;15.00;99.90
27439;DHT22;14887;51.252;7.470;2023-10-13T01:59:42;15.00;99.90
27439;DHT22;14887;51.252;7.470;2023-10-13T02:02:10;15.00;99.90
27439;DHT22;14887;51.252;7.470;2023-10-13T02:04:38;15.10;99.90
27439;DHT22;14887;51.252;7.470;2023-10-13T02:07:08;15.10;99.90
27439;DHT22;14887;51.252;7.470;2023-10-13T02:09:34;15.00;99.90
27439;DHT22;14887;51.252;7.470;2023-10-13T02:12:02;15.10;99.90
27439;DHT22;14887;51.252;7.470;2023-10-13T02:14:28;15.00;99.90
27439;DHT22;14887;51.252;7.470;2023-10-13T02:16:54;15.00;99.90
27439;DHT22;14887;51.252;7.470;2023-10-13T02:19:38;15.00;99.90
27439;DHT22;14887;51.252;7.470;2023-10-13T02:22:10;15.00;99.90
27439;DHT22;14887;51.252;7.470;2023-10-13T02:24:37;15.00;99.90
27439;DHT22;14887;51.252;7.470;2023-10-13T02:27:08;15.00;99.90
27439;DHT22;14887;51.252;7.470;2023-10-13T02:29:40;15.00;99.90
27439;DHT22;14887;51.252;7.470;2023-10-13T02:32:09;15.00;99.90
27439;DHT22;14887;51.252;7.470;2023-10-13T02:34:38;15.00;99.90
27439;DHT22;14887;51.252;7.470;2023-10-13T02:37:10;15.00;99.90
27439;DHT22;14887;51.252;7.470;2023-10-13T02:39:36;15.00;99.90
27439;DHT22;14887;51.252;7.470;2023-10-13T02:42:04;15.00;99.90
27439;DHT22;14887;51.252;7.470;2023-10-13T02:44:32;15.00;99.90
27439;DHT22;14887;51.252;7.470;2023-10-13T02:46:59;15.00;99.90
27439;DHT22;14887;51.252;7.470;2023-10-13T02:49:26;15.10;99.90
27439;DHT22;14887;51.252;7.470;2023-10-13T02:51:53;15.10;99.90
27439;DHT22;14887;51.252;7.470;2023-10-13T02:54:21;15.10;99.90
27439;DHT22;14887;51.252;7.470;2023-10-13T02:56:46;15.10;99.90
27439;DHT22;14887;51.252;7.470;2023-10-13T02:59:38;15.10;99.90
27439;DHT22;14887;51.252;7.470;2023-10-13T03:02:15;15.10;99.90
27439;DHT22;14887;51.252;7.470;2023-10-13T03:04:51;15.10;99.90
27439;DHT22;14887;51.252;7.470;2023-10-13T03:07:17;15.10;99.90
27439;DHT22;14887;51.252;7.470;2023-10-13T03:09:50;15.10;99.90
27439;DHT22;14887;51.252;7.470;2023-10-13T03:12:20;15.10;99.90
27439;DHT22;14887;51.252;7.470;2023-10-13T03:14:47;15.10;99.90
27439;DHT22;14887;51.252;7.470;2023-10-13T03:17:21;15.10;99.90
27439;DHT22;14887;51.252;7.470;2023-10-13T03:19:59;15.20;99.90
27439;DHT22;14887;51.252;7.470;2023-10-13T03:22:25;15.20;99.90
27439;DHT22;14887;51.252;7.470;2023-10-13T03:24:57;15.20;99.90
27439;DHT22;14887;51.252;7.470;2023-10-13T03:27:31;15.20;99.90
27439;DHT22;14887;51.252;7.470;2023-10-13T03:30:25;15.10;99.90
27439;DHT22;14887;51.252;7.470;2023-10-13T03:33:10;15.10;99.90
27439;DHT22;14887;51.252;7.470;2023-10-13T03:35:40;15.10;99.90
27439;DHT22;14887;51.252;7.470;2023-10-13T03:38:11;15.20;99.90
27439;DHT22;14887;51.252;7.470;2023-10-13T03:40:44;15.20;99.90
27439;DHT22;14887;51.252;7.470;2023-10-13T03:43:23;15.20;99.90
27439;DHT22;14887;51.252;7.470;2023-10-13T03:45:50;15.20;99.90
27439;DHT22;14887;51.252;7.470;2023-10-13T03:48:26;15.20;99.90
27439;DHT22;14887;51.252;7.470;2023-10-13T03:51:00;15.20;99.90
27439;DHT22;14887;51.252;7.470;2023-10-13T03:53:33;15.20;99.90
27439;DHT22;14887;51.252;7.470;2023-10-13T03:56:03;15.20;99.90
27439;DHT22;14887;51.252;7.470;2023-10-13T03:58:41;15.10;99.90
27439;DHT22;14887;51.252;7.470;2023-10-13T04:01:21;15.20;99.90
27439;DHT22;14887;51.252;7.470;2023-10-13T04:04:00;15.20;99.90
27439;DHT22;14887;51.252;7.470;2023-10-13T04:06:32;15.20;99.90
27439;DHT22;14887;51.252;7.470;2023-10-13T04:09:23;15.20;99.90
27439;DHT22;14887;51.252;7.470;2023-10-13T04:11:59;15.20;99.90
27439;DHT22;14887;51.252;7.470;2023-10-13T04:14:32;15.20;99.90
27439;DHT22;14887;51.252;7.470;2023-10-13T04:17:16;15.20;99.90
27439;DHT22;14887;51.252;7.470;2023-10-13T04:19:50;15.20;99.90
27439;DHT22;14887;51.252;7.470;2023-10-13T04:22:38;15.20;99.90
27439;DHT22;14887;51.252;7.470;2023-10-13T04:27:59;15.30;99.90
27439;DHT22;14887;51.252;7.470;2023-10-13T04:33:21;15.30;99.90
27439;DHT22;14887;51.252;7.470;2023-10-13T04:36:09;15.30;99.90
27439;DHT22;14887;51.252;7.470;2023-10-13T04:38:59;15.30;99.90
27439;DHT22;14887;51.252;7.470;2023-10-13T04:41:40;15.30;99.90
27439;DHT22;14887;51.252;7.470;2023-10-13T04:44:16;15.30;99.90
27439;DHT22;14887;51.252;7.470;2023-10-13T04:46:54;15.30;99.90
27439;DHT22;14887;51.252;7.470;2023-10-13T04:49:34;15.30;99.90
27439;DHT22;14887;51.252;7.470;2023-10-13T04:52:04;15.30;99.90
27439;DHT22;14887;51.252;7.470;2023-10-13T04:54:40;15.30;99.90
27439;DHT22;14887;51.252;7.470;2023-10-13T04:57:23;15.30;99.90
27439;DHT22;14887;51.252;7.470;2023-10-13T05:00:10;15.30;99.90
27439;DHT22;14887;51.252;7.470;2023-10-13T05:02:41;15.30;99.90
27439;DHT22;14887;51.252;7.470;2023-10-13T05:05:14;15.30;99.90
27439;DHT22;14887;51.252;7.470;2023-10-13T05:07:41;15.30;99.90
27439;DHT22;14887;51.252;7.470;2023-10-13T05:10:25;15.30;99.90
27439;DHT22;14887;51.252;7.470;2023-10-13T05:13:09;15.30;99.90
27439;DHT22;14887;51.252;7.470;2023-10-13T05:15:53;15.30;99.90
27439;DHT22;14887;51.252;7.470;2023-10-13T05:18:37;15.30;99.90
27439;DHT22;14887;51.252;7.470;2023-10-13T05:21:22;15.40;99.90
27439;DHT22;14887;51.252;7.470;2023-10-13T05:24:07;15.40;99.90
27439;DHT22;14887;51.252;7.470;2023-10-13T05:26:51;15.40;99.90
27439;DHT22;14887;51.252;7.470;2023-10-13T05:29:40;15.40;99.90
27439;DHT22;14887;51.252;7.470;2023-10-13T05:32:25;15.50;99.90
27439;DHT22;14887;51.252;7.470;2023-10-13T05:35:09;15.40;99.90
27439;DHT22;14887;51.252;7.470;2023-10-13T05:37:54;15.40;99.90
27439;DHT22;14887;51.252;7.470;2023-10-13T05:40:38;15.40;99.90
27439;DHT22;14887;51.252;7.470;2023-10-13T05:43:22;15.40;99.90
27439;DHT22;14887;51.252;7.470;2023-10-13T05:46:06;15.40;99.90
27439;DHT22;14887;51.252;7.470;2023-10-13T05:48:50;15.50;99.90
27439;DHT22;14887;51.252;7.470;2023-10-13T05:51:31;15.50;99.90
27439;DHT22;14887;51.252;7.470;2023-10-13T05:54:12;15.50;99.90
27439;DHT22;14887;51.252;7.470;2023-10-13T05:56:45;15.50;99.90
27439;DHT22;14887;51.252;7.470;2023-10-13T05:59:43;15.50;99.90
27439;DHT22;14887;51.252;7.470;2023-10-13T06:02:28;15.50;99.90
27439;DHT22;14887;51.252;7.470;2023-10-13T06:05:12;15.60;99.90
27439;DHT22;14887;51.252;7.470;2023-10-13T06:07:58;15.50;99.90
27439;DHT22;14887;51.252;7.470;2023-10-13T06:10:43;15.70;99.90
27439;DHT22;14887;51.252;7.470;2023-10-13T06:13:27;15.60;99.90
27439;DHT22;14887;51.252;7.470;2023-10-13T06:16:16;15.60;99.90
27439;DHT22;14887;51.252;7.470;2023-10-13T06:19:00;15.60;99.90
27439;DHT22;14887;51.252;7.470;2023-10-13T06:21:45;15.60;99.90
27439;DHT22;14887;51.252;7.470;2023-10-13T06:24:29;15.60;99.90
27439;DHT22;14887;51.252;7.470;2023-10-13T06:27:15;15.60;99.90
27439;DHT22;14887;51.252;7.470;2023-10-13T06:29:59;15.60;99.90
27439;DHT22;14887;51.252;7.470;2023-10-13T06:32:26;15.70;99.90
27439;DHT22;14887;51.252;7.470;2023-10-13T06:34:56;15.70;99.90
27439;DHT22;14887;51.252;7.470;2023-10-13T06:37:31;15.70;99.90
27439;DHT22;14887;51.252;7.470;2023-10-13T06:40:03;15.70;99.90
27439;DHT22;14887;51.252;7.470;2023-10-13T06:42:50;15.70;99.90
27439;DHT22;14887;51.252;7.470;2023-10-13T06:45:16;15.80;99.90
27439;DHT22;14887;51.252;7.470;2023-10-13T06:47:46;15.80;99.90
27439;DHT22;14887;51.252;7.470;2023-10-13T06:50:13;15.80;99.90
27439;DHT22;14887;51.252;7.470;2023-10-13T06:52:42;15.80;99.90
27439;DHT22;14887;51.252;7.470;2023-10-13T06:55:09;15.80;99.90
27439;DHT22;14887;51.252;7.470;2023-10-13T06:57:43;15.80;99.90
27439;DHT22;14887;51.252;7.470;2023-10-13T07:00:10;15.90;99.90
27439;DHT22;14887;51.252;7.470;2023-10-13T07:02:45;15.90;99.90
27439;DHT22;14887;51.252;7.470;2023-10-13T07:05:12;15.90;99.90
27439;DHT22;14887;51.252;7.470;2023-10-13T07:07:40;15.90;99.90
27439;DHT22;14887;51.252;7.470;2023-10-13T07:10:09;15.90;99.90
27439;DHT22;14887;51.252;7.470;2023-10-13T07:12:38;15.90;99.90
27439;DHT22;14887;51.252;7.470;2023-10-13T07:15:09;15.90;99.90
27439;DHT22;14887;51.252;7.470;2023-10-13T07:17:45;15.90;99.90
27439;DHT22;14887;51.252;7.470;2023-10-13T07:20:11;15.90;99.90
27439;DHT22;14887;51.252;7.470;2023-10-13T07:22:39;15.90;99.90
27439;DHT22;14887;51.252;7.470;2023-10-13T07:25:06;16.00;99.90
27439;DHT22;14887;51.252;7.470;2023-10-13T07:27:34;16.00;99.90
27439;DHT22;14887;51.252;7.470;2023-10-13T07:30:01;16.00;99.90
27439;DHT22;14887;51.252;7.470;2023-10-13T07:32:43;16.00;99.90
27439;DHT22;14887;51.252;7.470;2023-10-13T07:35:15;16.10;99.90
27439;DHT22;14887;51.252;7.470;2023-10-13T07:37:43;16.10;99.90
27439;DHT22;14887;51.252;7.470;2023-10-13T07:40:09;16.10;99.90
27439;DHT22;14887;51.252;7.470;2023-10-13T07:43:02;16.10;99.90
27439;DHT22;14887;51.252;7.470;2023-10-13T07:45:36;16.10;99.90
27439;DHT22;14887;51.252;7.470;2023-10-13T07:48:07;16.10;99.90
27439;DHT22;14887;51.252;7.470;2023-10-13T07:50:40;16.10;99.90
27439;DHT22;14887;51.252;7.470;2023-10-13T07:53:06;16.10;99.90
27439;DHT22;14887;51.252;7.470;2023-10-13T07:55:45;16.20;99.90
27439;DHT22;14887;51.252;7.470;2023-10-13T07:58:12;16.20;99.90
27439;DHT22;14887;51.252;7.470;2023-10-13T08:00:39;16.20;99.90
27439;DHT22;14887;51.252;7.470;2023-10-13T08:03:11;16.20;99.90
27439;DHT22;14887;51.252;7.470;2023-10-13T08:05:57;16.20;99.90
27439;DHT22;14887;51.252;7.470;2023-10-13T08:08:23;16.30;99.90
27439;DHT22;14887;51.252;7.470;2023-10-13T08:10:52;16.30;99.90
27439;DHT22;14887;51.252;7.470;2023-10-13T08:13:21;16.40;99.90
27439;DHT22;14887;51.252;7.470;2023-10-13T08:15:48;16.50;99.90
27439;DHT22;14887;51.252;7.470;2023-10-13T08:18:20;16.60;99.90
27439;DHT22;14887;51.252;7.470;2023-10-13T08:21:02;16.60;99.90
27439;DHT22;14887;51.252;7.470;2023-10-13T08:23:32;16.70;99.90
27439;DHT22;14887;51.252;7.470;2023-10-13T08:26:17;16.70;99.90
27439;DHT22;14887;51.252;7.470;2023-10-13T08:28:57;16.80;99.90
27439;DHT22;14887;51.252;7.470;2023-10-13T08:31:23;16.80;99.90
27439;DHT22;14887;51.252;7.470;2023-10-13T08:33:51;16.90;99.90
27439;DHT22;14887;51.252;7.470;2023-10-13T08:36:31;17.00;99.90
27439;DHT22;14887;51.252;7.470;2023-10-13T08:38:57;17.00;99.90
27439;DHT22;14887;51.252;7.470;2023-10-13T08:41:23;17.10;99.90
27439;DHT22;14887;51.252;7.470;2023-10-13T08:43:52;17.20;99.90
27439;DHT22;14887;51.252;7.470;2023-10-13T08:46:30;17.60;99.90
27439;DHT22;14887;51.252;7.470;2023-10-13T08:49:06;17.90;99.90
27439;DHT22;14887;51.252;7.470;2023-10-13T08:51:43;18.00;99.90
27439;DHT22;14887;51.252;7.470;2023-10-13T08:54:14;18.20;96.80
27439;DHT22;14887;51.252;7.470;2023-10-13T08:57:00;18.20;51.50
27439;DHT22;14887;51.252;7.470;2023-10-13T08:59:48;18.60;24.00
27439;DHT22;14887;51.252;7.470;2023-10-13T09:02:24;19.00;1.00
27439;DHT22;14887;51.252;7.470;2023-10-13T09:05:09;19.20;1.00
27439;DHT22;14887;51.252;7.470;2023-10-13T09:07:55;19.30;1.00
27439;DHT22;14887;51.252;7.470;2023-10-13T09:10:24;19.50;1.00
27439;DHT22;14887;51.252;7.470;2023-10-13T09:13:13;19.60;1.00
27439;DHT22;14887;51.252;7.470;2023-10-13T09:15:46;19.80;1.00
27439;DHT22;14887;51.252;7.470;2023-10-13T09:18:39;19.90;1.00
27439;DHT22;14887;51.252;7.470;2023-10-13T09:21:09;20.20;1.00
27439;DHT22;14887;51.252;7.470;2023-10-13T09:23:53;20.40;1.00
27439;DHT22;14887;51.252;7.470;2023-10-13T09:26:38;20.20;99.90
27439;DHT22;14887;51.252;7.470;2023-10-13T09:29:17;19.80;99.90
27439;DHT22;14887;51.252;7.470;2023-10-13T09:31:58;19.50;99.90
27439;DHT22;14887;51.252;7.470;2023-10-13T09:34:25;19.20;99.90
27439;DHT22;14887;51.252;7.470;2023-10-13T09:36:58;19.40;1.00
27439;DHT22;14887;51.252;7.470;2023-10-13T09:39:25;19.40;99.90
27439;DHT22;14887;51.252;7.470;2023-10-13T09:42:06;19.30;99.90
27439;DHT22;14887;51.252;7.470;2023-10-13T09:44:36;19.40;99.90
27439;DHT22;14887;51.252;7.470;2023-10-13T09:47:10;19.50;99.90
27439;DHT22;14887;51.252;7.470;2023-10-13T09:49:45;19.80;99.90
27439;DHT22;14887;51.252;7.470;2023-10-13T09:52:18;20.00;99.90
27439;DHT22;14887;51.252;7.470;2023-10-13T09:57:37;19.70;99.90
27439;DHT22;14887;51.252;7.470;2023-10-13T10:00:15;19.90;99.90
27439;DHT22;14887;51.252;7.470;2023-10-13T10:03:13;19.80;99.90
27439;DHT22;14887;51.252;7.470;2023-10-13T10:06:02;19.80;99.90
27439;DHT22;14887;51.252;7.470;2023-10-13T10:08:44;19.90;99.90
27439;DHT22;14887;51.252;7.470;2023-10-13T10:11:45;19.90;99.90
27439;DHT22;14887;51.252;7.470;2023-10-13T10:14:19;19.90;99.90
27439;DHT22;14887;51.252;7.470;2023-10-13T10:17:08;19.80;99.90
27439;DHT22;14887;51.252;7.470;2023-10-13T10:19:52;19.90;99.90
27439;DHT22;14887;51.252;7.470;2023-10-13T10:22:33;20.00;99.90
27439;DHT22;14887;51.252;7.470;2023-10-13T10:25:02;20.00;99.90
27439;DHT22;14887;51.252;7.470;2023-10-13T10:27:29;20.20;99.90
27439;DHT22;14887;51.252;7.470;2023-10-13T10:29:56;20.40;39.30
27439;DHT22;14887;51.252;7.470;2023-10-13T10:32:40;20.50;27.60
27439;DHT22;14887;51.252;7.470;2023-10-13T10:35:10;20.60;1.00
27439;DHT22;14887;51.252;7.470;2023-10-13T10:37:46;20.80;1.00
27439;DHT22;14887;51.252;7.470;2023-10-13T10:40:17;20.90;1.00
27439;DHT22;14887;51.252;7.470;2023-10-13T10:43:15;20.90;1.00
27439;DHT22;14887;51.252;7.470;2023-10-13T10:45:47;20.90;1.00
27439;DHT22;14887;51.252;7.470;2023-10-13T10:48:16;21.20;1.00
27439;DHT22;14887;51.252;7.470;2023-10-13T10:50:56;21.30;1.00
27439;DHT22;14887;51.252;7.470;2023-10-13T10:53:22;21.50;99.90
27439;DHT22;14887;51.252;7.470;2023-10-13T10:55:48;21.50;1.00
27439;DHT22;14887;51.252;7.470;2023-10-13T10:58:14;21.60;1.00
27439;DHT22;14887;51.252;7.470;2023-10-13T11:01:08;21.70;1.00
27439;DHT22;14887;51.252;7.470;2023-10-13T11:03:38;21.50;99.90
27439;DHT22;14887;51.252;7.470;2023-10-13T11:06:11;21.30;1.00
27439;DHT22;14887;51.252;7.470;2023-10-13T11:08:42;21.10;99.90
27439;DHT22;14887;51.252;7.470;2023-10-13T11:11:09;21.00;99.90
27439;DHT22;14887;51.252;7.470;2023-10-13T11:13:44;21.20;1.00
27439;DHT22;14887;51.252;7.470;2023-10-13T11:16:22;21.30;99.90
27439;DHT22;14887;51.252;7.470;2023-10-13T11:19:01;21.20;99.90
27439;DHT22;14887;51.252;7.470;2023-10-13T11:21:29;21.20;99.90
27439;DHT22;14887;51.252;7.470;2023-10-13T11:23:57;21.40;99.90
27439;DHT22;14887;51.252;7.470;2023-10-13T11:26:33;21.50;1.00
27439;DHT22;14887;51.252;7.470;2023-10-13T11:28:59;21.60;1.00
27439;DHT22;14887;51.252;7.470;2023-10-13T11:31:24;21.60;1.00
27439;DHT22;14887;51.252;7.470;2023-10-13T11:33:50;21.70;1.00
27439;DHT22;14887;51.252;7.470;2023-10-13T11:36:17;21.80;1.00
27439;DHT22;14887;51.252;7.470;2023-10-13T11:38:47;22.20;1.00
27439;DHT22;14887;51.252;7.470;2023-10-13T11:41:13;22.40;99.90
27439;DHT22;14887;51.252;7.470;2023-10-13T11:43:48;22.50;99.90
27439;DHT22;14887;51.252;7.470;2023-10-13T11:46:20;22.60;99.90
27439;DHT22;14887;51.252;7.470;2023-10-13T11:49:11;22.60;99.90
27439;DHT22;14887;51.252;7.470;2023-10-13T11:51:45;22.80;78.30
27439;DHT22;14887;51.252;7.470;2023-10-13T11:56:41;22.10;99.90
27439;DHT22;14887;51.252;7.470;2023-10-13T11:59:07;21.80;99.90
27439;DHT22;14887;51.252;7.470;2023-10-13T12:04:29;21.20;99.90
27439;DHT22;14887;51.252;7.470;2023-10-13T12:07:07;21.10;1.00
27439;DHT22;14887;51.252;7.470;2023-10-13T12:09:47;21.10;1.00
27439;DHT22;14887;51.252;7.470;2023-10-13T12:12:29;21.20;1.00
27439;DHT22;14887;51.252;7.470;2023-10-13T12:15:06;21.10;1.00
27439;DHT22;14887;51.252;7.470;2023-10-13T12:17:36;21.20;1.00
27439;DHT22;14887;51.252;7.470;2023-10-13T12:20:05;21.30;99.90
27439;DHT22;14887;51.252;7.470;2023-10-13T12:22:35;21.20;99.90
27439;DHT22;14887;51.252;7.470;2023-10-13T12:25:01;21.20;99.90
27439;DHT22;14887;51.252;7.470;2023-10-13T12:27:31;21.10;99.90
27439;DHT22;14887;51.252;7.470;2023-10-13T12:30:11;20.80;1.00
27439;DHT22;14887;51.252;7.470;2023-10-13T12:32:39;20.70;1.00
27439;DHT22;14887;51.252;7.470;2023-10-13T12:35:10;20.60;1.00
27439;DHT22;14887;51.252;7.470;2023-10-13T12:37:35;20.50;45.50
27439;DHT22;14887;51.252;7.470;2023-10-13T12:40:05;20.50;1.00
27439;DHT22;14887;51.252;7.470;2023-10-13T12:42:49;20.70;1.00
27439;DHT22;14887;51.252;7.470;2023-10-13T12:45:33;20.90;1.00
27439;DHT22;14887;51.252;7.470;2023-10-13T12:48:22;21.00;1.00
27439;DHT22;14887;51.252;7.470;2023-10-13T12:51:06;20.80;1.00
27439;DHT22;14887;51.252;7.470;2023-10-13T12:54:06;20.80;1.00
27439;DHT22;14887;51.252;7.470;2023-10-13T12:56:45;20.70;1.00
27439;DHT22;14887;51.252;7.470;2023-10-13T12:59:11;20.70;1.00
27439;DHT22;14887;51.252;7.470;2023-10-13T13:01:41;20.80;1.00
27439;DHT22;14887;51.252;7.470;2023-10-13T13:04:10;20.80;1.00
27439;DHT22;14887;51.252;7.470;2023-10-13T13:06:51;20.80;99.90
27439;DHT22;14887;51.252;7.470;2023-10-13T13:09:16;21.00;99.90
27439;DHT22;14887;51.252;7.470;2023-10-13T13:11:52;21.10;99.90
27439;DHT22;14887;51.252;7.470;2023-10-13T13:14:22;21.10;99.90
27439;DHT22;14887;51.252;7.470;2023-10-13T13:16:57;21.00;1.00
27439;DHT22;14887;51.252;7.470;2023-10-13T13:19:34;21.00;99.90
27439;DHT22;14887;51.252;7.470;2023-10-13T13:22:07;20.90;1.00
27439;DHT22;14887;51.252;7.470;2023-10-13T13:24:42;20.80;1.00
27439;DHT22;14887;51.252;7.470;2023-10-13T13:27:11;20.70;1.00
27439;DHT22;14887;51.252;7.470;2023-10-13T13:29:42;20.70;1.00
27439;DHT22;14887;51.252;7.470;2023-10-13T13:32:09;20.60;1.00
27439;DHT22;14887;51.252;7.470;2023-10-13T13:34:45;20.70;1.00
27439;DHT22;14887;51.252;7.470;2023-10-13T13:37:18;20.60;99.90
27439;DHT22;14887;51.252;7.470;2023-10-13T13:39:45;20.60;99.90
27439;DHT22;14887;51.252;7.470;2023-10-13T13:42:11;20.60;99.90
27439;DHT22;14887;51.252;7.470;2023-10-13T13:44:46;20.50;99.90
27439;DHT22;14887;51.252;7.470;2023-10-13T13:47:14;20.50;99.90
27439;DHT22;14887;51.252;7.470;2023-10-13T13:49:42;20.50;99.90
27439;DHT22;14887;51.252;7.470;2023-10-13T13:52:17;20.40;99.90
27439;DHT22;14887;51.252;7.470;2023-10-13T13:54:47;20.20;99.90
27439;DHT22;14887;51.252;7.470;2023-10-13T13:57:13;20.10;1.00
27439;DHT22;14887;51.252;7.470;2023-10-13T13:59:39;19.90;23.70
27439;DHT22;14887;51.252;7.470;2023-10-13T14:02:09;19.60;99.90
27439;DHT22;14887;51.252;7.470;2023-10-13T14:04:48;19.50;67.10
27439;DHT22;14887;51.252;7.470;2023-10-13T14:07:18;19.50;99.90
27439;DHT22;14887;51.252;7.470;2023-10-13T14:09:46;19.50;1.00
27439;DHT22;14887;51.252;7.470;2023-10-13T14:12:17;19.60;1.00
27439;DHT22;14887;51.252;7.470;2023-10-13T14:14:56;19.60;1.00
27439;DHT22;14887;51.252;7.470;2023-10-13T14:17:23;19.70;1.00
27439;DHT22;14887;51.252;7.470;2023-10-13T14:19:58;19.80;1.00
27439;DHT22;14887;51.252;7.470;2023-10-13T14:22:26;19.90;1.00
27439;DHT22;14887;51.252;7.470;2023-10-13T14:24:52;19.90;1.00
27439;DHT22;14887;51.252;7.470;2023-10-13T14:27:21;20.00;1.00
27439;DHT22;14887;51.252;7.470;2023-10-13T14:29:52;20.30;99.90
27439;DHT22;14887;51.252;7.470;2023-10-13T14:32:19;20.50;99.90
27439;DHT22;14887;51.252;7.470;2023-10-13T14:34:46;20.40;99.90
27439;DHT22;14887;51.252;7.470;2023-10-13T14:37:20;20.30;99.90
27439;DHT22;14887;51.252;7.470;2023-10-13T14:39:55;20.30;99.90
27439;DHT22;14887;51.252;7.470;2023-10-13T14:42:28;20.20;99.90
27439;DHT22;14887;51.252;7.470;2023-10-13T14:44:54;20.10;1.00
27439;DHT22;14887;51.252;7.470;2023-10-13T14:47:26;20.00;1.00
27439;DHT22;14887;51.252;7.470;2023-10-13T14:49:56;19.90;99.90
27439;DHT22;14887;51.252;7.470;2023-10-13T14:52:25;19.80;99.90
27439;DHT22;14887;51.252;7.470;2023-10-13T14:54:51;19.70;97.80
27439;DHT22;14887;51.252;7.470;2023-10-13T14:57:21;19.70;1.00
27439;DHT22;14887;51.252;7.470;2023-10-13T14:59:53;19.70;14.90
27439;DHT22;14887;51.252;7.470;2023-10-13T15:02:20;19.60;1.00
27439;DHT22;14887;51.252;7.470;2023-10-13T15:04:49;19.60;99.90
27439;DHT22;14887;51.252;7.470;2023-10-13T15:07:16;19.50;18.40
27439;DHT22;14887;51.252;7.470;2023-10-13T15:09:43;19.40;95.50
27439;DHT22;14887;51.252;7.470;2023-10-13T15:12:09;19.30;99.90
27439;DHT22;14887;51.252;7.470;2023-10-13T15:14:39;19.20;99.90
27439;DHT22;14887;51.252;7.470;2023-10-13T15:17:08;19.20;1.00
27439;DHT22;14887;51.252;7.470;2023-10-13T15:19:35;19.20;96.80
27439;DHT22;14887;51.252;7.470;2023-10-13T15:22:08;19.20;1.00
27439;DHT22;14887;51.252;7.470;2023-10-13T15:24:47;19.30;1.00
27439;DHT22;14887;51.252;7.470;2023-10-13T15:27:25;19.40;1.00
27439;DHT22;14887;51.252;7.470;2023-10-13T15:29:54;19.40;1.00
27439;DHT22;14887;51.252;7.470;2023-10-13T15:32:20;19.30;1.00
27439;DHT22;14887;51.252;7.470;2023-10-13T15:35:04;19.30;1.00
27439;DHT22;14887;51.252;7.470;2023-10-13T15:37:30;19.30;1.00
27439;DHT22;14887;51.252;7.470;2023-10-13T15:39:56;19.00;1.00
27439;DHT22;14887;51.252;7.470;2023-10-13T15:42:23;18.80;1.00
27439;DHT22;14887;51.252;7.470;2023-10-13T15:44:49;18.60;1.00
27439;DHT22;14887;51.252;7.470;2023-10-13T15:47:15;18.60;1.00
27439;DHT22;14887;51.252;7.470;2023-10-13T15:49:41;18.60;99.90
27439;DHT22;14887;51.252;7.470;2023-10-13T15:52:08;18.60;1.00
27439;DHT22;14887;51.252;7.470;2023-10-13T15:54:35;18.60;1.00
27439;DHT22;14887;51.252;7.470;2023-10-13T15:57:01;18.70;99.90
27439;DHT22;14887;51.252;7.470;2023-10-13T15:59:27;18.80;1.00
27439;DHT22;14887;51.252;7.470;2023-10-13T16:01:52;18.80;99.90
27439;DHT22;14887;51.252;7.470;2023-10-13T16:04:23;18.70;99.90
27439;DHT22;14887;51.252;7.470;2023-10-13T16:06:49;18.60;1.00
27439;DHT22;14887;51.252;7.470;2023-10-13T16:09:17;18.70;1.00
27439;DHT22;14887;51.252;7.470;2023-10-13T16:11:51;18.60;99.90
27439;DHT22;14887;51.252;7.470;2023-10-13T16:14:20;18.40;1.00
27439;DHT22;14887;51.252;7.470;2023-10-13T16:16:50;18.10;99.90
27439;DHT22;14887;51.252;7.470;2023-10-13T16:19:19;17.80;1.00
27439;DHT22;14887;51.252;7.470;2023-10-13T16:21:53;17.50;1.00
27439;DHT22;14887;51.252;7.470;2023-10-13T16:24:20;17.40;1.00
27439;DHT22;14887;51.252;7.470;2023-10-13T16:26:50;17.30;99.90
27439;DHT22;14887;51.252;7.470;2023-10-13T16:29:22;17.30;99.90